アシガバート の空港の天気 - METARとTAF

アシガバート空港 ( UTAA / ASB ) - トルクメニスタン アシガバート
飛行場実況気象(Metar)
観測時間10/28 22:00 TMT (10/28 17:00 UTC)
風向・風速東 4m/s
視程10km以上
天気現象
なし
気温10℃
湿度34%
気圧1030hPa
METARUTAA 281700Z 10008KT 9999 NSC 10/M05 Q1030 R88/70D NOSIG
過去の天気等 Google飛行場航空写真 Wunderground天気予報

過去48時間のMETAR

飛行場予報(TAF)
発表時間: 10/28 21:45 TMT (10/28 16:45 UTC)
予報対象時間: 28日23時 TMT ~ 29日23時 TMT
風向・風速東南東 7m/s
視程6000m
全天の4割程度の雲 雲底高度 910m
全天の4割程度の雲 雲底高度 3050m
29日7時 TMT ~ 29日9時 TMT に徐々に
風向・風速東 9m/s
29日11時 TMT ~ 29日17時 TMT に一時的に
風向・風速東 7m/s 瞬間風速 12m/s
TAF UTAA 281645Z 2818/2918 12014KT 6000 SCT030 SCT100
BECMG 2902/2904 10018KT
TEMPO 2906/2912 09014G24KT